sensor_id;sensor_type;location;lat;lon;timestamp;pressure;altitude;pressure_sealevel;temperature;humidity
59686;BME280;45554;51.096;16.976;2023-07-22T00:00:03;99693.31;;;15.87;79.27
59686;BME280;45554;51.096;16.976;2023-07-22T00:02:54;99697.27;;;15.82;79.27
59686;BME280;45554;51.096;16.976;2023-07-22T00:05:22;99696.66;;;15.79;79.56
59686;BME280;45554;51.096;16.976;2023-07-22T00:07:51;99696.19;;;15.76;79.52
59686;BME280;45554;51.096;16.976;2023-07-22T00:10:20;99696.90;;;15.74;79.65
59686;BME280;45554;51.096;16.976;2023-07-22T00:12:48;99693.87;;;15.72;79.49
59686;BME280;45554;51.096;16.976;2023-07-22T00:15:16;99693.18;;;15.70;79.40
59686;BME280;45554;51.096;16.976;2023-07-22T00:17:44;99686.23;;;15.68;79.49
59686;BME280;45554;51.096;16.976;2023-07-22T00:20:12;99687.38;;;15.67;79.40
59686;BME280;45554;51.096;16.976;2023-07-22T00:22:42;99688.27;;;15.65;79.24
59686;BME280;45554;51.096;16.976;2023-07-22T00:25:11;99702.52;;;15.65;79.53
59686;BME280;45554;51.096;16.976;2023-07-22T00:27:41;99709.48;;;15.65;79.67
59686;BME280;45554;51.096;16.976;2023-07-22T00:30:10;99711.68;;;15.64;79.77
59686;BME280;45554;51.096;16.976;2023-07-22T00:32:38;99710.51;;;15.63;79.72
59686;BME280;45554;51.096;16.976;2023-07-22T00:35:08;99714.48;;;15.62;80.14
59686;BME280;45554;51.096;16.976;2023-07-22T00:37:38;99718.89;;;15.62;80.50
59686;BME280;45554;51.096;16.976;2023-07-22T00:40:06;99717.20;;;15.61;80.62
59686;BME280;45554;51.096;16.976;2023-07-22T00:42:40;99717.23;;;15.59;80.51
59686;BME280;45554;51.096;16.976;2023-07-22T00:45:08;99722.69;;;15.57;80.44
59686;BME280;45554;51.096;16.976;2023-07-22T00:47:36;99726.30;;;15.56;80.65
59686;BME280;45554;51.096;16.976;2023-07-22T00:50:06;99727.77;;;15.55;80.84
59686;BME280;45554;51.096;16.976;2023-07-22T00:52:35;99723.98;;;15.55;80.54
59686;BME280;45554;51.096;16.976;2023-07-22T00:55:04;99722.73;;;15.55;80.53
59686;BME280;45554;51.096;16.976;2023-07-22T00:57:33;99717.47;;;15.56;80.61
59686;BME280;45554;51.096;16.976;2023-07-22T01:00:01;99716.32;;;15.55;80.47
59686;BME280;45554;51.096;16.976;2023-07-22T01:02:29;99721.59;;;15.55;80.69
59686;BME280;45554;51.096;16.976;2023-07-22T01:04:57;99720.16;;;15.54;80.95
59686;BME280;45554;51.096;16.976;2023-07-22T01:07:25;99708.96;;;15.52;80.98
59686;BME280;45554;51.096;16.976;2023-07-22T01:09:56;99708.00;;;15.49;80.97
59686;BME280;45554;51.096;16.976;2023-07-22T01:12:24;99711.47;;;15.46;81.04
59686;BME280;45554;51.096;16.976;2023-07-22T01:14:52;99715.90;;;15.41;81.40
59686;BME280;45554;51.096;16.976;2023-07-22T01:17:22;99719.94;;;15.37;81.43
59686;BME280;45554;51.096;16.976;2023-07-22T01:19:51;99720.27;;;15.33;81.32
59686;BME280;45554;51.096;16.976;2023-07-22T01:22:19;99722.33;;;15.30;81.12
59686;BME280;45554;51.096;16.976;2023-07-22T01:24:47;99729.63;;;15.25;81.48
59686;BME280;45554;51.096;16.976;2023-07-22T01:27:15;99724.05;;;15.21;81.66
59686;BME280;45554;51.096;16.976;2023-07-22T01:29:44;99720.38;;;15.17;81.42
59686;BME280;45554;51.096;16.976;2023-07-22T01:32:12;99716.48;;;15.11;81.42
59686;BME280;45554;51.096;16.976;2023-07-22T01:34:40;99724.61;;;15.06;81.55
59686;BME280;45554;51.096;16.976;2023-07-22T01:37:08;99729.77;;;15.04;81.90
59686;BME280;45554;51.096;16.976;2023-07-22T01:39:37;99726.48;;;14.99;81.98
59686;BME280;45554;51.096;16.976;2023-07-22T01:42:06;99736.16;;;14.97;82.26
59686;BME280;45554;51.096;16.976;2023-07-22T01:44:34;99748.55;;;14.94;82.61
59686;BME280;45554;51.096;16.976;2023-07-22T01:47:02;99747.56;;;14.91;82.48
59686;BME280;45554;51.096;16.976;2023-07-22T01:49:31;99748.13;;;14.86;82.48
59686;BME280;45554;51.096;16.976;2023-07-22T01:52:00;99748.19;;;14.81;82.55
59686;BME280;45554;51.096;16.976;2023-07-22T01:54:28;99750.93;;;14.75;82.58
59686;BME280;45554;51.096;16.976;2023-07-22T01:56:56;99752.52;;;14.71;82.92
59686;BME280;45554;51.096;16.976;2023-07-22T01:59:24;99755.63;;;14.67;83.01
59686;BME280;45554;51.096;16.976;2023-07-22T02:01:52;99752.67;;;14.62;83.14
59686;BME280;45554;51.096;16.976;2023-07-22T02:04:20;99750.67;;;14.58;83.16
59686;BME280;45554;51.096;16.976;2023-07-22T02:06:48;99749.48;;;14.56;83.26
59686;BME280;45554;51.096;16.976;2023-07-22T02:09:17;99757.77;;;14.53;83.93
59686;BME280;45554;51.096;16.976;2023-07-22T02:11:45;99760.30;;;14.52;83.85
59686;BME280;45554;51.096;16.976;2023-07-22T02:14:14;99763.20;;;14.52;83.76
59686;BME280;45554;51.096;16.976;2023-07-22T02:16:42;99763.89;;;14.50;83.99
59686;BME280;45554;51.096;16.976;2023-07-22T02:19:10;99766.17;;;14.47;84.12
59686;BME280;45554;51.096;16.976;2023-07-22T02:21:41;99764.84;;;14.47;84.37
59686;BME280;45554;51.096;16.976;2023-07-22T02:24:10;99763.13;;;14.46;84.75
59686;BME280;45554;51.096;16.976;2023-07-22T02:26:38;99762.77;;;14.48;85.26
59686;BME280;45554;51.096;16.976;2023-07-22T02:29:06;99762.09;;;14.52;85.44
59686;BME280;45554;51.096;16.976;2023-07-22T02:31:35;99765.91;;;14.55;85.34
59686;BME280;45554;51.096;16.976;2023-07-22T02:34:03;99768.89;;;14.57;85.38
59686;BME280;45554;51.096;16.976;2023-07-22T02:36:31;99767.03;;;14.59;85.46
59686;BME280;45554;51.096;16.976;2023-07-22T02:38:59;99767.55;;;14.61;85.25
59686;BME280;45554;51.096;16.976;2023-07-22T02:41:27;99766.54;;;14.63;85.28
59686;BME280;45554;51.096;16.976;2023-07-22T02:43:55;99764.64;;;14.65;85.27
59686;BME280;45554;51.096;16.976;2023-07-22T02:46:23;99765.90;;;14.66;85.11
59686;BME280;45554;51.096;16.976;2023-07-22T02:48:52;99771.31;;;14.67;85.33
59686;BME280;45554;51.096;16.976;2023-07-22T02:51:20;99767.39;;;14.67;85.08
59686;BME280;45554;51.096;16.976;2023-07-22T02:53:48;99769.49;;;14.68;85.35
59686;BME280;45554;51.096;16.976;2023-07-22T02:56:17;99770.16;;;14.68;85.16
59686;BME280;45554;51.096;16.976;2023-07-22T02:58:45;99770.69;;;14.68;84.90
59686;BME280;45554;51.096;16.976;2023-07-22T03:01:13;99772.64;;;14.68;85.26
59686;BME280;45554;51.096;16.976;2023-07-22T03:03:41;99780.73;;;14.68;85.21
59686;BME280;45554;51.096;16.976;2023-07-22T03:06:09;99781.63;;;14.68;85.41
59686;BME280;45554;51.096;16.976;2023-07-22T03:08:37;99782.75;;;14.70;85.23
59686;BME280;45554;51.096;16.976;2023-07-22T03:11:06;99779.23;;;14.69;85.18
59686;BME280;45554;51.096;16.976;2023-07-22T03:13:34;99783.70;;;14.71;85.07
59686;BME280;45554;51.096;16.976;2023-07-22T03:16:04;99785.16;;;14.73;85.17
59686;BME280;45554;51.096;16.976;2023-07-22T03:18:33;99785.16;;;14.73;85.04
59686;BME280;45554;51.096;16.976;2023-07-22T03:21:01;99787.90;;;14.74;85.01
59686;BME280;45554;51.096;16.976;2023-07-22T03:23:29;99792.15;;;14.76;85.00
59686;BME280;45554;51.096;16.976;2023-07-22T03:25:57;99792.79;;;14.77;84.96
59686;BME280;45554;51.096;16.976;2023-07-22T03:28:25;99795.55;;;14.77;85.09
59686;BME280;45554;51.096;16.976;2023-07-22T03:30:54;99797.05;;;14.78;85.06
59686;BME280;45554;51.096;16.976;2023-07-22T03:33:22;99801.23;;;14.79;85.21
59686;BME280;45554;51.096;16.976;2023-07-22T03:35:50;99806.26;;;14.80;84.97
59686;BME280;45554;51.096;16.976;2023-07-22T03:38:18;99810.58;;;14.84;84.82
59686;BME280;45554;51.096;16.976;2023-07-22T03:40:46;99808.41;;;14.87;84.84
59686;BME280;45554;51.096;16.976;2023-07-22T03:43:15;99806.45;;;14.91;84.71
59686;BME280;45554;51.096;16.976;2023-07-22T03:45:43;99807.52;;;14.95;84.54
59686;BME280;45554;51.096;16.976;2023-07-22T03:48:11;99809.02;;;14.99;84.56
59686;BME280;45554;51.096;16.976;2023-07-22T03:50:39;99810.41;;;15.01;84.43
59686;BME280;45554;51.096;16.976;2023-07-22T03:53:07;99809.11;;;15.02;84.37
59686;BME280;45554;51.096;16.976;2023-07-22T03:55:35;99814.79;;;15.02;84.34
59686;BME280;45554;51.096;16.976;2023-07-22T03:58:03;99818.85;;;15.02;84.22
59686;BME280;45554;51.096;16.976;2023-07-22T04:00:30;99822.29;;;15.01;84.09
59686;BME280;45554;51.096;16.976;2023-07-22T04:02:59;99822.06;;;14.99;84.15
59686;BME280;45554;51.096;16.976;2023-07-22T04:05:27;99826.39;;;14.98;84.10
59686;BME280;45554;51.096;16.976;2023-07-22T04:07:55;99827.46;;;14.98;84.19
59686;BME280;45554;51.096;16.976;2023-07-22T04:10:23;99823.80;;;14.97;83.96
59686;BME280;45554;51.096;16.976;2023-07-22T04:12:51;99824.33;;;14.97;83.90
59686;BME280;45554;51.096;16.976;2023-07-22T04:15:19;99827.19;;;14.99;83.88
59686;BME280;45554;51.096;16.976;2023-07-22T04:17:47;99826.70;;;15.03;83.88
59686;BME280;45554;51.096;16.976;2023-07-22T04:20:15;99830.64;;;15.07;83.69
59686;BME280;45554;51.096;16.976;2023-07-22T04:22:43;99824.33;;;15.08;83.58
59686;BME280;45554;51.096;16.976;2023-07-22T04:25:11;99827.42;;;15.11;83.61
59686;BME280;45554;51.096;16.976;2023-07-22T04:27:39;99831.13;;;15.16;83.46
59686;BME280;45554;51.096;16.976;2023-07-22T04:30:08;99834.19;;;15.17;83.37
59686;BME280;45554;51.096;16.976;2023-07-22T04:32:36;99836.86;;;15.21;83.37
59686;BME280;45554;51.096;16.976;2023-07-22T04:35:05;99836.72;;;15.23;83.20
59686;BME280;45554;51.096;16.976;2023-07-22T04:37:34;99839.97;;;15.25;82.93
59686;BME280;45554;51.096;16.976;2023-07-22T04:40:02;99843.48;;;15.27;82.89
59686;BME280;45554;51.096;16.976;2023-07-22T04:42:33;99844.15;;;15.27;82.58
59686;BME280;45554;51.096;16.976;2023-07-22T04:45:01;99848.11;;;15.29;82.40
59686;BME280;45554;51.096;16.976;2023-07-22T04:47:31;99851.05;;;15.29;82.35
59686;BME280;45554;51.096;16.976;2023-07-22T04:49:59;99856.39;;;15.31;82.35
59686;BME280;45554;51.096;16.976;2023-07-22T04:52:27;99855.73;;;15.33;82.25
59686;BME280;45554;51.096;16.976;2023-07-22T04:54:55;99859.66;;;15.34;82.02
59686;BME280;45554;51.096;16.976;2023-07-22T04:57:23;99858.75;;;15.37;81.90
59686;BME280;45554;51.096;16.976;2023-07-22T04:59:50;99859.36;;;15.40;81.60
59686;BME280;45554;51.096;16.976;2023-07-22T05:02:19;99858.19;;;15.44;81.21
59686;BME280;45554;51.096;16.976;2023-07-22T05:04:47;99858.67;;;15.48;80.84
59686;BME280;45554;51.096;16.976;2023-07-22T05:07:15;99867.24;;;15.54;80.39
59686;BME280;45554;51.096;16.976;2023-07-22T05:09:43;99863.97;;;15.59;80.23
59686;BME280;45554;51.096;16.976;2023-07-22T05:12:11;99869.48;;;15.65;79.75
59686;BME280;45554;51.096;16.976;2023-07-22T05:14:39;99876.52;;;15.70;78.86
59686;BME280;45554;51.096;16.976;2023-07-22T05:17:07;99875.55;;;15.75;78.59
59686;BME280;45554;51.096;16.976;2023-07-22T05:19:35;99878.12;;;15.79;77.87
59686;BME280;45554;51.096;16.976;2023-07-22T05:22:03;99890.41;;;15.82;77.72
59686;BME280;45554;51.096;16.976;2023-07-22T05:24:31;99901.00;;;15.84;77.17
59686;BME280;45554;51.096;16.976;2023-07-22T05:26:59;99886.55;;;15.85;77.19
59686;BME280;45554;51.096;16.976;2023-07-22T05:29:36;99886.35;;;15.88;77.28
59686;BME280;45554;51.096;16.976;2023-07-22T05:32:05;99895.42;;;15.89;76.94
59686;BME280;45554;51.096;16.976;2023-07-22T05:34:44;99894.66;;;15.92;76.86
59686;BME280;45554;51.096;16.976;2023-07-22T05:37:12;99894.35;;;15.94;76.56
59686;BME280;45554;51.096;16.976;2023-07-22T05:39:39;99892.96;;;15.96;76.17
59686;BME280;45554;51.096;16.976;2023-07-22T05:42:07;99889.43;;;15.98;76.25
59686;BME280;45554;51.096;16.976;2023-07-22T05:44:36;99897.09;;;16.01;75.77
59686;BME280;45554;51.096;16.976;2023-07-22T05:47:04;99900.80;;;16.04;75.25
59686;BME280;45554;51.096;16.976;2023-07-22T05:49:31;99897.47;;;16.05;74.84
59686;BME280;45554;51.096;16.976;2023-07-22T05:52:00;99899.46;;;16.09;75.11
59686;BME280;45554;51.096;16.976;2023-07-22T05:54:28;99903.94;;;16.13;74.91
59686;BME280;45554;51.096;16.976;2023-07-22T05:56:56;99902.07;;;16.16;74.57
59686;BME280;45554;51.096;16.976;2023-07-22T05:59:24;99906.23;;;16.21;74.33
59686;BME280;45554;51.096;16.976;2023-07-22T06:01:52;99910.42;;;16.24;73.43
59686;BME280;45554;51.096;16.976;2023-07-22T06:04:20;99904.93;;;16.26;73.32
59686;BME280;45554;51.096;16.976;2023-07-22T06:06:48;99907.80;;;16.32;73.48
59686;BME280;45554;51.096;16.976;2023-07-22T06:09:16;99922.34;;;16.36;73.08
59686;BME280;45554;51.096;16.976;2023-07-22T06:11:44;99922.41;;;16.39;72.46
59686;BME280;45554;51.096;16.976;2023-07-22T06:14:12;99919.30;;;16.42;72.22
59686;BME280;45554;51.096;16.976;2023-07-22T06:16:40;99914.11;;;16.45;71.75
59686;BME280;45554;51.096;16.976;2023-07-22T06:19:08;99920.58;;;16.48;71.79
59686;BME280;45554;51.096;16.976;2023-07-22T06:21:37;99923.21;;;16.52;71.92
59686;BME280;45554;51.096;16.976;2023-07-22T06:24:05;99929.46;;;16.56;71.50
59686;BME280;45554;51.096;16.976;2023-07-22T06:26:33;99937.27;;;16.60;71.18
59686;BME280;45554;51.096;16.976;2023-07-22T06:29:02;99932.73;;;16.65;71.18
59686;BME280;45554;51.096;16.976;2023-07-22T06:31:30;99926.76;;;16.73;71.48
59686;BME280;45554;51.096;16.976;2023-07-22T06:33:59;99926.77;;;16.81;71.30
59686;BME280;45554;51.096;16.976;2023-07-22T06:36:27;99933.48;;;16.92;71.02
59686;BME280;45554;51.096;16.976;2023-07-22T06:38:56;99933.10;;;17.05;70.60
59686;BME280;45554;51.096;16.976;2023-07-22T06:41:24;99938.84;;;17.16;69.91
59686;BME280;45554;51.096;16.976;2023-07-22T06:43:53;99939.16;;;17.28;68.68
59686;BME280;45554;51.096;16.976;2023-07-22T06:46:21;99943.21;;;17.38;67.92
59686;BME280;45554;51.096;16.976;2023-07-22T06:48:49;99938.14;;;17.46;67.27
59686;BME280;45554;51.096;16.976;2023-07-22T06:51:17;99933.92;;;17.50;66.62
59686;BME280;45554;51.096;16.976;2023-07-22T06:53:45;99941.45;;;17.57;66.71
59686;BME280;45554;51.096;16.976;2023-07-22T06:56:13;99942.71;;;17.66;66.41
59686;BME280;45554;51.096;16.976;2023-07-22T06:58:44;99951.42;;;17.72;65.91
59686;BME280;45554;51.096;16.976;2023-07-22T07:01:12;99955.02;;;17.69;65.27
59686;BME280;45554;51.096;16.976;2023-07-22T07:03:40;99950.21;;;17.65;65.31
59686;BME280;45554;51.096;16.976;2023-07-22T07:06:08;99952.47;;;17.66;65.49
59686;BME280;45554;51.096;16.976;2023-07-22T07:08:36;99952.11;;;17.76;66.10
59686;BME280;45554;51.096;16.976;2023-07-22T07:11:04;99960.39;;;17.88;65.00
59686;BME280;45554;51.096;16.976;2023-07-22T07:13:33;99960.78;;;17.96;64.56
59686;BME280;45554;51.096;16.976;2023-07-22T07:16:24;99965.36;;;18.00;64.55
59686;BME280;45554;51.096;16.976;2023-07-22T07:18:54;99963.16;;;18.07;64.51
59686;BME280;45554;51.096;16.976;2023-07-22T07:21:23;99965.86;;;18.14;64.14
59686;BME280;45554;51.096;16.976;2023-07-22T07:23:52;99975.22;;;18.19;63.11
59686;BME280;45554;51.096;16.976;2023-07-22T07:26:21;99979.64;;;18.19;62.26
59686;BME280;45554;51.096;16.976;2023-07-22T07:28:51;99970.34;;;18.16;62.67
59686;BME280;45554;51.096;16.976;2023-07-22T07:31:19;99965.92;;;18.16;62.67
59686;BME280;45554;51.096;16.976;2023-07-22T07:33:48;99971.80;;;18.14;62.43
59686;BME280;45554;51.096;16.976;2023-07-22T07:36:15;99972.39;;;18.11;62.31
59686;BME280;45554;51.096;16.976;2023-07-22T07:38:44;99971.58;;;18.14;61.87
59686;BME280;45554;51.096;16.976;2023-07-22T07:41:15;99969.86;;;18.19;61.39
59686;BME280;45554;51.096;16.976;2023-07-22T07:43:43;99970.86;;;18.24;61.68
59686;BME280;45554;51.096;16.976;2023-07-22T07:46:20;99978.94;;;18.27;61.00
59686;BME280;45554;51.096;16.976;2023-07-22T07:48:52;99983.27;;;18.30;60.42
59686;BME280;45554;51.096;16.976;2023-07-22T07:51:24;99977.06;;;18.32;59.94
59686;BME280;45554;51.096;16.976;2023-07-22T07:53:55;99986.45;;;18.33;60.05
59686;BME280;45554;51.096;16.976;2023-07-22T07:56:24;99989.87;;;18.39;60.09
59686;BME280;45554;51.096;16.976;2023-07-22T07:58:54;99990.20;;;18.43;60.00
59686;BME280;45554;51.096;16.976;2023-07-22T08:01:22;100000.63;;;18.49;59.13
59686;BME280;45554;51.096;16.976;2023-07-22T08:03:51;100000.61;;;18.55;58.17
59686;BME280;45554;51.096;16.976;2023-07-22T08:06:22;99995.75;;;18.56;57.94
59686;BME280;45554;51.096;16.976;2023-07-22T08:08:51;99992.60;;;18.58;58.39
59686;BME280;45554;51.096;16.976;2023-07-22T08:11:20;100000.40;;;18.59;58.09
59686;BME280;45554;51.096;16.976;2023-07-22T08:13:50;99996.08;;;18.59;58.63
59686;BME280;45554;51.096;16.976;2023-07-22T08:16:20;99996.92;;;18.61;59.08
59686;BME280;45554;51.096;16.976;2023-07-22T08:18:51;100001.54;;;18.64;59.25
59686;BME280;45554;51.096;16.976;2023-07-22T08:21:19;100016.43;;;18.66;57.96
59686;BME280;45554;51.096;16.976;2023-07-22T08:23:50;100017.65;;;18.67;57.61
59686;BME280;45554;51.096;16.976;2023-07-22T08:26:19;100015.33;;;18.75;57.86
59686;BME280;45554;51.096;16.976;2023-07-22T08:28:48;100019.12;;;18.82;56.90
59686;BME280;45554;51.096;16.976;2023-07-22T08:31:16;100019.22;;;18.82;56.49
59686;BME280;45554;51.096;16.976;2023-07-22T08:33:44;100013.80;;;18.82;56.50
59686;BME280;45554;51.096;16.976;2023-07-22T08:36:12;100008.72;;;18.88;56.93
59686;BME280;45554;51.096;16.976;2023-07-22T08:38:40;100013.24;;;18.95;57.16
59686;BME280;45554;51.096;16.976;2023-07-22T08:41:13;100018.95;;;19.01;55.58
59686;BME280;45554;51.096;16.976;2023-07-22T08:43:42;100022.04;;;19.11;53.61
59686;BME280;45554;51.096;16.976;2023-07-22T08:46:12;100015.45;;;19.17;53.92
59686;BME280;45554;51.096;16.976;2023-07-22T08:48:42;100013.48;;;19.25;53.37
59686;BME280;45554;51.096;16.976;2023-07-22T08:51:16;100023.94;;;19.25;52.14
59686;BME280;45554;51.096;16.976;2023-07-22T08:53:46;100011.42;;;19.26;52.43
59686;BME280;45554;51.096;16.976;2023-07-22T08:56:34;100013.70;;;19.30;52.13
59686;BME280;45554;51.096;16.976;2023-07-22T08:59:04;100012.42;;;19.34;51.73
59686;BME280;45554;51.096;16.976;2023-07-22T09:01:34;100012.62;;;19.43;52.02
59686;BME280;45554;51.096;16.976;2023-07-22T09:04:04;100020.85;;;19.46;51.40
59686;BME280;45554;51.096;16.976;2023-07-22T09:06:34;100010.30;;;19.56;51.25
59686;BME280;45554;51.096;16.976;2023-07-22T09:09:03;100019.11;;;19.64;51.15
59686;BME280;45554;51.096;16.976;2023-07-22T09:11:36;100014.99;;;19.72;50.65
59686;BME280;45554;51.096;16.976;2023-07-22T09:14:04;100020.67;;;19.76;49.47
59686;BME280;45554;51.096;16.976;2023-07-22T09:16:33;100012.80;;;19.80;49.74
59686;BME280;45554;51.096;16.976;2023-07-22T09:19:03;100024.66;;;19.89;49.40
59686;BME280;45554;51.096;16.976;2023-07-22T09:21:32;100017.55;;;19.99;49.06
59686;BME280;45554;51.096;16.976;2023-07-22T09:24:21;100026.60;;;20.05;48.42
59686;BME280;45554;51.096;16.976;2023-07-22T09:26:51;100022.41;;;20.11;48.44
59686;BME280;45554;51.096;16.976;2023-07-22T09:29:39;100018.09;;;20.15;48.32
59686;BME280;45554;51.096;16.976;2023-07-22T09:32:08;100020.85;;;20.32;48.68
59686;BME280;45554;51.096;16.976;2023-07-22T09:34:36;100024.02;;;20.47;47.79
59686;BME280;45554;51.096;16.976;2023-07-22T09:37:04;100035.47;;;20.59;47.01
59686;BME280;45554;51.096;16.976;2023-07-22T09:39:34;100023.91;;;20.69;46.83
59686;BME280;45554;51.096;16.976;2023-07-22T09:42:03;100025.63;;;20.86;46.84
59686;BME280;45554;51.096;16.976;2023-07-22T09:44:31;100024.14;;;20.98;46.32
59686;BME280;45554;51.096;16.976;2023-07-22T09:47:06;100025.61;;;21.07;46.80
59686;BME280;45554;51.096;16.976;2023-07-22T09:49:40;100034.02;;;21.10;45.95
59686;BME280;45554;51.096;16.976;2023-07-22T09:52:10;100031.34;;;21.08;45.65
59686;BME280;45554;51.096;16.976;2023-07-22T09:54:51;100021.70;;;21.12;45.80
59686;BME280;45554;51.096;16.976;2023-07-22T09:57:21;100022.14;;;21.21;45.55
59686;BME280;45554;51.096;16.976;2023-07-22T09:59:50;100013.12;;;21.31;45.52
59686;BME280;45554;51.096;16.976;2023-07-22T10:02:22;100025.42;;;21.33;44.62
59686;BME280;45554;51.096;16.976;2023-07-22T10:04:52;100024.92;;;21.22;44.56
59686;BME280;45554;51.096;16.976;2023-07-22T10:07:21;100018.01;;;21.15;44.99
59686;BME280;45554;51.096;16.976;2023-07-22T10:09:51;100020.49;;;21.18;45.61
59686;BME280;45554;51.096;16.976;2023-07-22T10:12:23;100030.34;;;21.25;44.92
59686;BME280;45554;51.096;16.976;2023-07-22T10:14:51;100025.67;;;21.34;43.77
59686;BME280;45554;51.096;16.976;2023-07-22T10:17:19;100016.42;;;21.39;43.48
59686;BME280;45554;51.096;16.976;2023-07-22T10:19:48;100019.33;;;21.42;43.24
59686;BME280;45554;51.096;16.976;2023-07-22T10:22:17;100023.23;;;21.46;42.69
59686;BME280;45554;51.096;16.976;2023-07-22T10:24:47;100026.57;;;21.47;42.19
59686;BME280;45554;51.096;16.976;2023-07-22T10:27:16;100030.36;;;21.47;42.03
59686;BME280;45554;51.096;16.976;2023-07-22T10:29:45;100022.65;;;21.44;41.92
59686;BME280;45554;51.096;16.976;2023-07-22T10:32:13;100021.86;;;21.41;42.06
59686;BME280;45554;51.096;16.976;2023-07-22T10:34:42;100026.40;;;21.46;41.93
59686;BME280;45554;51.096;16.976;2023-07-22T10:37:09;100025.26;;;21.53;41.70
59686;BME280;45554;51.096;16.976;2023-07-22T10:39:38;100029.83;;;21.61;40.92
59686;BME280;45554;51.096;16.976;2023-07-22T10:42:07;100029.64;;;21.71;40.08
59686;BME280;45554;51.096;16.976;2023-07-22T10:44:36;100015.61;;;21.84;40.25
59686;BME280;45554;51.096;16.976;2023-07-22T10:47:05;100019.57;;;21.91;40.40
59686;BME280;45554;51.096;16.976;2023-07-22T10:49:44;100014.14;;;21.96;40.16
59686;BME280;45554;51.096;16.976;2023-07-22T10:52:12;100015.50;;;21.97;39.77
59686;BME280;45554;51.096;16.976;2023-07-22T10:54:41;100020.30;;;22.07;39.23
59686;BME280;45554;51.096;16.976;2023-07-22T10:59:50;100015.63;;;22.34;38.65
59686;BME280;45554;51.096;16.976;2023-07-22T11:02:26;100021.42;;;22.37;38.19
59686;BME280;45554;51.096;16.976;2023-07-22T11:04:58;100023.60;;;22.33;38.68
59686;BME280;45554;51.096;16.976;2023-07-22T11:07:41;100022.29;;;22.27;38.80
59686;BME280;45554;51.096;16.976;2023-07-22T11:10:15;100027.58;;;22.17;39.11
59686;BME280;45554;51.096;16.976;2023-07-22T11:12:44;100019.59;;;22.14;39.37
59686;BME280;45554;51.096;16.976;2023-07-22T11:15:16;100030.93;;;22.19;39.35
59686;BME280;45554;51.096;16.976;2023-07-22T11:17:46;100029.33;;;22.23;38.88
59686;BME280;45554;51.096;16.976;2023-07-22T11:20:14;100025.11;;;22.27;39.08
59686;BME280;45554;51.096;16.976;2023-07-22T11:22:42;100019.65;;;22.31;38.73
59686;BME280;45554;51.096;16.976;2023-07-22T11:25:17;100012.74;;;22.44;38.69
59686;BME280;45554;51.096;16.976;2023-07-22T11:27:46;100019.03;;;22.64;36.72
59686;BME280;45554;51.096;16.976;2023-07-22T11:30:14;100032.39;;;22.71;35.54
59686;BME280;45554;51.096;16.976;2023-07-22T11:32:42;100024.59;;;22.78;35.83
59686;BME280;45554;51.096;16.976;2023-07-22T11:35:11;100024.46;;;22.87;36.32
59686;BME280;45554;51.096;16.976;2023-07-22T11:37:39;100015.28;;;22.88;37.04
59686;BME280;45554;51.096;16.976;2023-07-22T11:40:11;100026.08;;;22.89;37.48
59686;BME280;45554;51.096;16.976;2023-07-22T11:42:40;100030.83;;;22.91;37.64
59686;BME280;45554;51.096;16.976;2023-07-22T11:45:08;100034.45;;;22.99;37.28
59686;BME280;45554;51.096;16.976;2023-07-22T11:47:37;100029.46;;;23.07;36.88
59686;BME280;45554;51.096;16.976;2023-07-22T11:50:06;100034.39;;;23.15;36.07
59686;BME280;45554;51.096;16.976;2023-07-22T11:52:34;100015.66;;;23.16;36.08
59686;BME280;45554;51.096;16.976;2023-07-22T11:55:02;100011.08;;;23.21;36.22
59686;BME280;45554;51.096;16.976;2023-07-22T11:57:31;100001.13;;;23.40;36.08
59686;BME280;45554;51.096;16.976;2023-07-22T12:00:01;99997.06;;;23.63;36.36
59686;BME280;45554;51.096;16.976;2023-07-22T12:02:35;99995.95;;;23.82;36.80
59686;BME280;45554;51.096;16.976;2023-07-22T12:05:05;100010.45;;;23.97;34.57
59686;BME280;45554;51.096;16.976;2023-07-22T12:07:35;100014.90;;;23.92;33.72
59686;BME280;45554;51.096;16.976;2023-07-22T12:10:06;100005.02;;;23.79;34.13
59686;BME280;45554;51.096;16.976;2023-07-22T12:12:52;100004.95;;;23.69;34.13
59686;BME280;45554;51.096;16.976;2023-07-22T12:15:21;100007.77;;;23.48;34.09
59686;BME280;45554;51.096;16.976;2023-07-22T12:18:01;100013.98;;;23.38;34.07
59686;BME280;45554;51.096;16.976;2023-07-22T12:20:31;100007.77;;;23.39;32.70
59686;BME280;45554;51.096;16.976;2023-07-22T12:22:59;99998.28;;;23.46;33.25
59686;BME280;45554;51.096;16.976;2023-07-22T12:25:27;99995.43;;;23.63;33.65
59686;BME280;45554;51.096;16.976;2023-07-22T12:27:56;100002.05;;;23.76;32.46
59686;BME280;45554;51.096;16.976;2023-07-22T12:30:24;100006.31;;;23.85;32.17
59686;BME280;45554;51.096;16.976;2023-07-22T12:32:52;100000.05;;;24.04;32.06
59686;BME280;45554;51.096;16.976;2023-07-22T12:35:20;99990.08;;;24.23;31.43
59686;BME280;45554;51.096;16.976;2023-07-22T12:37:48;100001.17;;;24.45;30.66
59686;BME280;45554;51.096;16.976;2023-07-22T12:40:16;99999.09;;;24.55;30.11
59686;BME280;45554;51.096;16.976;2023-07-22T12:42:44;99985.70;;;24.70;30.17
59686;BME280;45554;51.096;16.976;2023-07-22T12:45:13;99995.66;;;24.92;29.92
59686;BME280;45554;51.096;16.976;2023-07-22T12:47:41;99989.14;;;25.12;29.53
59686;BME280;45554;51.096;16.976;2023-07-22T12:50:09;99988.05;;;25.30;29.74
59686;BME280;45554;51.096;16.976;2023-07-22T12:52:38;99986.43;;;25.28;29.61
59686;BME280;45554;51.096;16.976;2023-07-22T12:55:06;99977.21;;;25.33;29.54
59686;BME280;45554;51.096;16.976;2023-07-22T12:57:34;99976.77;;;25.50;29.67
59686;BME280;45554;51.096;16.976;2023-07-22T13:00:03;99979.87;;;25.62;29.08